Time;durP1;ratioP1;P1;durP2;ratioP2;P2;SDS_P1;SDS_P2;PMS_P1;PMS_P2;Temp;Humidity;BMP_temperature;BMP_pressure;BME280_temperature;BME280_humidity;BME280_pressure;Samples;Min_cycle;Max_cycle;Signal;HPM_P1;HPM_P2
2022/09/14 06:47:22;;;;;;;7.00;2.80;;;17.30;99.90;;;;;;5128917;27;20497;-78
2022/09/14 06:49:51;;;;;;;2.63;2.40;;;17.40;99.90;;;;;;5100421;28;20213;-80
2022/09/14 06:52:19;;;;;;;6.60;2.73;;;17.50;99.90;;;;;;5101921;28;20202;-78
2022/09/14 06:54:47;;;;;;;6.43;2.50;;;17.60;99.90;;;;;;5109094;28;20566;-77
2022/09/14 06:57:15;;;;;;;5.97;2.27;;;17.80;99.90;;;;;;5098800;28;20206;-81
2022/09/14 06:59:43;;;;;;;6.53;2.40;;;18.00;99.90;;;;;;5089157;28;20215;-80
2022/09/14 07:02:14;;;;;;;3.17;2.20;;;18.20;99.90;;;;;;5103544;28;20229;-76
2022/09/14 07:04:43;;;;;;;5.67;2.30;;;18.40;99.90;;;;;;5112118;28;20206;-79
2022/09/14 07:07:14;;;;;;;5.53;2.30;;;18.50;99.90;;;;;;5108964;28;20210;-79
2022/09/14 07:09:42;;;;;;;6.07;2.10;;;18.70;99.90;;;;;;5101969;28;20583;-78
2022/09/14 07:12:13;;;;;;;5.20;2.10;;;18.80;99.90;;;;;;5089124;28;20206;-78
2022/09/14 07:14:41;;;;;;;5.80;2.10;;;18.90;99.90;;;;;;5089374;28;20214;-78
2022/09/14 07:17:09;;;;;;;3.50;2.17;;;19.00;99.90;;;;;;5093532;28;20327;-78
2022/09/14 07:19:37;;;;;;;9.13;2.40;;;19.10;99.90;;;;;;5101245;28;20198;-81
2022/09/14 07:22:10;;;;;;;6.77;2.23;;;19.10;99.90;;;;;;5110354;28;20211;-78
2022/09/14 07:24:38;;;;;;;6.47;2.37;;;19.20;99.90;;;;;;5098328;28;20218;-78
2022/09/14 07:27:06;;;;;;;5.80;2.30;;;19.20;99.90;;;;;;5112988;28;20233;-77
2022/09/14 07:29:35;;;;;;;6.03;2.10;;;19.30;99.90;;;;;;5097896;28;20210;-78
2022/09/14 07:32:03;;;;;;;5.50;2.37;;;19.40;99.90;;;;;;5102062;28;20199;-79
2022/09/14 07:34:31;;;;;;;3.63;2.10;;;19.50;99.90;;;;;;5111754;28;20209;-79
2022/09/14 07:36:59;;;;;;;3.77;2.00;;;19.60;99.90;;;;;;5100799;28;20207;-79
2022/09/14 07:39:29;;;;;;;7.43;2.40;;;19.60;99.90;;;;;;5090754;28;20214;-78
2022/09/14 07:41:57;;;;;;;6.07;2.20;;;19.60;99.90;;;;;;5110131;28;20277;-80
2022/09/14 07:44:25;;;;;;;6.93;2.27;;;19.70;99.90;;;;;;5105140;28;20602;-78
2022/09/14 07:46:53;;;;;;;7.87;2.37;;;19.70;99.90;;;;;;5100490;28;20231;-77
2022/09/14 07:49:22;;;;;;;8.93;2.50;;;19.80;99.90;;;;;;5090508;28;20210;-77
2022/09/14 07:51:52;;;;;;;9.27;2.40;;;19.90;99.90;;;;;;5096007;28;20217;-78
2022/09/14 07:54:20;;;;;;;7.27;2.20;;;20.00;99.90;;;;;;5109055;28;20206;-78
2022/09/14 07:56:49;;;;;;;5.97;2.20;;;20.20;99.90;;;;;;5103021;28;20209;-77
2022/09/14 07:59:17;;;;;;;7.77;2.37;;;20.40;99.90;;;;;;5077236;28;20669;-78
2022/09/14 08:02:07;;;;;;;5.33;2.10;;;20.60;99.90;;;;;;5076624;28;20245;-78
2022/09/14 08:04:37;;;;;;;4.53;2.00;;;20.80;99.90;;;;;;5076147;28;20208;-77
2022/09/14 08:07:06;;;;;;;7.33;2.00;;;21.00;99.90;;;;;;5084267;28;20218;-79
2022/09/14 08:09:34;;;;;;;4.97;2.00;;;21.10;99.90;;;;;;5083842;28;20672;-77
2022/09/14 08:12:04;;;;;;;6.57;1.97;;;21.20;99.90;;;;;;5084402;28;20581;-78
2022/09/14 08:14:32;;;;;;;5.37;1.97;;;21.60;99.90;;;;;;5091506;28;20207;-79
2022/09/14 08:17:01;;;;;;;4.23;1.73;;;22.00;99.90;;;;;;5081068;28;20204;-80
2022/09/14 08:19:29;;;;;;;4.80;2.00;;;22.30;99.90;;;;;;5090430;28;20346;-79
2022/09/14 08:21:57;;;;;;;4.03;1.70;;;22.60;99.90;;;;;;5094270;28;20288;-78
2022/09/14 08:24:26;;;;;;;6.50;1.90;;;22.70;99.90;;;;;;5094424;28;20207;-79
2022/09/14 08:26:54;;;;;;;6.43;1.70;;;23.10;99.90;;;;;;5094149;28;20704;-78
2022/09/14 08:29:24;;;;;;;4.83;1.60;;;23.60;99.90;;;;;;5091092;28;20219;-78
2022/09/14 08:31:53;;;;;;;5.50;2.00;;;23.70;99.90;;;;;;5082255;28;20210;-76
2022/09/14 08:34:21;;;;;;;4.93;1.70;;;23.70;99.90;;;;;;5093353;28;20264;-78
2022/09/14 08:36:49;;;;;;;6.97;2.03;;;23.80;99.90;;;;;;5094251;28;20199;-78
2022/09/14 08:39:17;;;;;;;4.03;1.73;;;23.90;99.90;;;;;;5076867;28;20211;-77
2022/09/14 08:41:51;;;;;;;6.20;1.70;;;23.80;99.90;;;;;;5073810;28;20214;-77
2022/09/14 08:44:23;;;;;;;5.40;2.10;;;23.60;99.90;;;;;;5073692;28;20200;-77
2022/09/14 08:46:58;;;;;;;5.07;1.90;;;23.60;99.90;;;;;;5081597;28;20230;-78
2022/09/14 08:49:44;;;;;;;5.67;2.07;;;23.60;99.90;;;;;;5074252;28;20199;-77
2022/09/14 08:52:22;;;;;;;6.33;1.80;;;23.60;99.90;;;;;;5093308;28;20222;-77
2022/09/14 08:54:54;;;;;;;5.33;1.80;;;23.60;99.90;;;;;;5093647;28;20217;-77
2022/09/14 08:57:28;;;;;;;8.70;2.07;;;23.70;99.90;;;;;;5075828;28;20202;-77
2022/09/14 09:00:05;;;;;;;5.43;1.63;;;24.20;99.90;;;;;;5073283;28;20187;-78
2022/09/14 09:02:55;;;;;;;4.30;1.50;;;24.80;99.90;;;;;;5078328;28;20203;-80
2022/09/14 09:05:33;;;;;;;6.07;1.80;;;25.50;99.90;;;;;;5089626;28;20769;-79
2022/09/14 09:08:08;;;;;;;3.40;1.60;;;25.60;99.90;;;;;;5081501;28;20331;-78
2022/09/14 09:10:39;;;;;;;3.77;1.60;;;26.50;99.90;;;;;;5076980;28;20215;-77
2022/09/14 09:13:17;;;;;;;4.90;1.60;;;27.00;99.90;;;;;;5090426;28;20230;-79
2022/09/14 09:15:48;;;;;;;5.13;1.70;;;27.60;99.90;;;;;;5089512;28;20238;-79
2022/09/14 09:18:23;;;;;;;6.13;1.70;;;27.80;99.90;;;;;;5081381;28;20203;-78
2022/09/14 09:20:54;;;;;;;4.32;1.80;;;27.60;99.90;;;;;;5079374;28;20218;-78
2022/09/14 09:23:24;;;;;;;4.05;1.70;;;27.90;99.90;;;;;;5087926;28;20206;-78
2022/09/14 09:25:58;;;;;;;4.70;1.52;;;28.20;99.90;;;;;;5078942;28;20203;-78
2022/09/14 09:28:28;;;;;;;4.30;1.58;;;28.10;99.90;;;;;;5076925;28;20199;-80
2022/09/14 09:31:03;;;;;;;5.00;1.90;;;28.40;99.90;;;;;;5086063;28;20203;-78
2022/09/14 09:33:33;;;;;;;5.00;1.80;;;28.70;99.90;;;;;;5084616;28;20273;-77
2022/09/14 09:36:02;;;;;;;6.00;1.70;;;28.40;99.90;;;;;;5076429;28;20231;-82
2022/09/14 09:38:30;;;;;;;4.97;1.55;;;28.00;99.90;;;;;;5086583;28;20206;-80
2022/09/14 09:41:05;;;;;;;4.18;1.90;;;27.50;99.90;;;;;;5089473;28;20686;-81
2022/09/14 09:43:34;;;;;;;3.85;1.67;;;27.40;99.90;;;;;;5081857;28;20234;-82
2022/09/14 09:46:17;;;;;;;3.83;1.67;;;27.20;99.90;;;;;;5088554;28;20558;-78
2022/09/14 09:48:47;;;;;;;6.87;1.87;;;27.10;99.90;;;;;;5076290;28;20297;-79
2022/09/14 09:51:27;;;;;;;5.17;1.90;;;26.70;99.90;;;;;;5085476;28;20246;-81
2022/09/14 09:54:06;;;;;;;5.60;1.70;;;26.00;99.90;;;;;;5096624;28;20213;-80
2022/09/14 09:56:37;;;;;;;8.90;1.97;;;25.70;99.90;;;;;;5097297;28;20218;-79
2022/09/14 09:59:22;;;;;;;4.40;1.90;;;25.80;99.90;;;;;;5091238;28;20207;-83
2022/09/14 10:01:52;;;;;;;5.67;2.00;;;25.90;99.90;;;;;;5092203;28;20194;-78
2022/09/14 10:04:26;;;;;;;4.13;1.87;;;25.50;99.90;;;;;;5092656;28;20215;-78
2022/09/14 10:06:56;;;;;;;9.27;2.07;;;25.60;99.90;;;;;;5091960;28;20197;-77
2022/09/14 10:09:27;;;;;;;5.97;1.90;;;26.00;99.90;;;;;;5087137;28;20207;-80
2022/09/14 10:12:00;;;;;;;5.40;1.70;;;26.40;99.90;;;;;;5092334;28;20191;-79
2022/09/14 10:14:31;;;;;;;4.53;1.60;;;26.90;99.90;;;;;;5092616;28;20215;-79
2022/09/14 10:17:07;;;;;;;5.07;1.77;;;27.10;99.90;;;;;;5090166;28;20237;-79
2022/09/14 10:19:37;;;;;;;6.30;1.90;;;27.10;99.90;;;;;;5076503;28;20198;-78
2022/09/14 10:22:17;;;;;;;5.37;1.60;;;26.80;99.90;;;;;;5072948;28;20638;-81
2022/09/14 10:24:58;;;;;;;5.83;1.87;;;26.90;99.90;;;;;;5072815;28;20719;-79
2022/09/14 10:27:39;;;;;;;5.40;1.63;;;27.30;99.90;;;;;;5087389;28;20236;-78
2022/09/14 10:30:14;;;;;;;4.03;1.70;;;26.90;99.90;;;;;;5089732;28;20187;-82
2022/09/14 10:32:46;;;;;;;6.20;1.70;;;26.70;99.90;;;;;;5085305;28;20202;-81
2022/09/14 10:35:16;;;;;;;2.57;1.60;;;26.60;99.90;;;;;;5081318;28;20223;-83
2022/09/14 10:37:55;;;;;;;4.03;1.73;;;26.70;99.90;;;;;;5089588;28;20227;-83
2022/09/14 10:40:28;;;;;;;4.20;1.80;;;26.80;99.90;;;;;;5090769;28;20226;-80
2022/09/14 10:43:14;;;;;;;5.13;1.77;;;27.30;99.90;;;;;;5091556;28;20230;-81
2022/09/14 10:45:51;;;;;;;5.20;1.87;;;27.50;99.90;;;;;;5091860;28;20222;-84
2022/09/14 10:48:44;;;;;;;8.30;1.90;;;28.20;99.90;;;;;;5090820;28;20282;-82
2022/09/14 10:51:34;;;;;;;5.35;1.73;;;28.60;99.90;;;;;;5072718;28;20207;-84
2022/09/14 10:54:16;;;;;;;3.45;1.77;;;28.50;99.90;;;;;;5071856;28;20641;-80
2022/09/14 10:56:59;;;;;;;6.40;1.90;;;27.90;99.90;;;;;;5072267;28;20222;-78
2022/09/14 10:59:34;;;;;;;6.80;1.70;;;27.80;99.90;;;;;;5072319;28;20195;-81
2022/09/14 11:02:28;;;;;;;7.93;1.90;;;27.80;99.90;;;;;;5073480;28;20218;-83
2022/09/14 11:05:11;;;;;;;3.50;1.70;;;27.60;99.90;;;;;;5086482;28;20203;-80
2022/09/14 11:07:54;;;;;;;8.90;2.10;;;27.40;99.90;;;;;;5093556;28;20206;-82
2022/09/14 11:10:28;;;;;;;8.73;1.80;;;27.90;99.90;;;;;;5090348;28;20230;-80
2022/09/14 11:13:18;;;;;;;5.37;1.70;;;28.20;99.90;;;;;;5090087;28;20206;-80
2022/09/14 11:15:59;;;;;;;3.70;1.60;;;27.90;99.90;;;;;;5095636;28;20224;-83
2022/09/14 11:18:35;;;;;;;5.07;1.93;;;27.50;99.90;;;;;;5094876;28;20219;-84
2022/09/14 11:21:12;;;;;;;3.47;1.67;;;27.70;99.90;;;;;;5090258;28;20211;-79
2022/09/14 11:23:51;;;;;;;5.73;1.93;;;27.40;99.90;;;;;;5082821;28;20322;-84
2022/09/14 11:26:25;;;;;;;7.17;2.03;;;27.40;99.90;;;;;;5073219;28;20226;-80
2022/09/14 11:28:59;;;;;;;5.57;1.77;;;27.40;99.90;;;;;;5073396;28;20205;-80
2022/09/14 11:31:32;;;;;;;5.53;2.30;;;27.60;99.90;;;;;;5081878;28;20200;-81
2022/09/14 11:34:11;;;;;;;7.00;1.90;;;27.90;99.90;;;;;;5102322;28;20664;-83
2022/09/14 11:36:44;;;;;;;7.67;2.00;;;27.60;99.90;;;;;;5106620;28;20309;-86
2022/09/14 11:39:19;;;;;;;8.60;1.90;;;28.10;99.90;;;;;;5087845;28;20735;-78
2022/09/14 11:41:52;;;;;;;5.80;1.80;;;28.30;99.90;;;;;;5100433;28;20279;-77
2022/09/14 11:44:23;;;;;;;10.13;2.27;;;28.30;99.90;;;;;;5077835;28;20567;-83
2022/09/14 11:46:57;;;;;;;7.00;1.70;;;28.50;99.90;;;;;;5077776;28;20354;-79
2022/09/14 11:49:39;;;;;;;5.40;1.80;;;28.30;99.90;;;;;;5094352;28;20217;-81
2022/09/14 11:52:16;;;;;;;11.20;2.10;;;28.10;99.90;;;;;;5080984;28;20205;-85
2022/09/14 11:54:57;;;;;;;5.17;1.63;;;27.90;99.90;;;;;;5087767;28;20195;-79
2022/09/14 11:57:30;;;;;;;5.70;2.00;;;28.40;99.90;;;;;;5086226;28;20219;-78
2022/09/14 12:00:06;;;;;;;3.93;1.70;;;28.10;99.90;;;;;;5077060;28;20216;-80
2022/09/14 12:03:00;;;;;;;3.33;1.93;;;28.00;99.90;;;;;;5077401;28;20199;-77
2022/09/14 12:05:37;;;;;;;4.90;1.90;;;27.70;99.90;;;;;;5083984;28;20322;-81
2022/09/14 12:08:28;;;;;;;4.90;1.87;;;28.00;99.90;;;;;;5085652;28;20619;-78
2022/09/14 12:11:03;;;;;;;4.43;2.00;;;27.80;99.90;;;;;;5081252;28;20286;-79
2022/09/14 12:13:32;;;;;;;8.37;2.30;;;27.80;99.90;;;;;;5096044;28;20210;-80
2022/09/14 12:16:04;;;;;;;5.30;1.80;;;27.80;99.90;;;;;;5078491;28;20203;-77
2022/09/14 12:18:35;;;;;;;3.27;1.70;;;28.00;99.90;;;;;;5075786;28;20233;-81
2022/09/14 12:21:08;;;;;;;4.37;2.07;;;27.90;99.90;;;;;;5075368;28;20207;-79
2022/09/14 12:23:44;;;;;;;6.03;1.80;;;27.90;99.90;;;;;;5078901;28;20206;-78
2022/09/14 12:26:31;;;;;;;4.13;1.90;;;27.80;99.90;;;;;;5077919;28;20207;-82
2022/09/14 12:29:23;;;;;;;7.20;1.80;;;27.90;99.90;;;;;;5091720;28;20238;-78
2022/09/14 12:32:05;;;;;;;6.43;1.90;;;27.70;99.90;;;;;;5099045;28;20214;-81
2022/09/14 12:34:34;;;;;;;5.40;1.70;;;27.50;99.90;;;;;;5099470;28;20203;-80
2022/09/14 12:37:35;;;;;;;7.30;1.80;;;27.30;99.90;;;;;;5099314;28;20210;-78
2022/09/14 12:40:36;;;;;;;6.00;1.87;;;27.30;99.90;;;;;;5101388;28;20208;-77
2022/09/14 12:43:45;;;;;;;6.03;1.97;;;27.30;99.90;;;;;;5081101;28;20210;-78
2022/09/14 12:46:33;;;;;;;5.13;1.83;;;27.30;99.90;;;;;;5082609;28;20254;-78
2022/09/14 12:49:02;;;;;;;4.00;2.10;;;27.20;99.90;;;;;;5098324;28;20206;-79
2022/09/14 12:51:42;;;;;;;9.47;2.13;;;27.00;99.90;;;;;;5097233;28;20203;-76
2022/09/14 12:54:22;;;;;;;10.07;2.33;;;26.90;99.90;;;;;;5095949;28;20206;-77
2022/09/14 12:57:02;;;;;;;7.50;1.97;;;26.90;99.90;;;;;;5094937;28;20202;-76
2022/09/14 12:59:37;;;;;;;6.00;2.03;;;26.80;99.90;;;;;;5093661;28;20210;-78
2022/09/14 13:02:39;;;;;;;4.83;2.03;;;26.70;99.90;;;;;;5075929;28;20203;-76
2022/09/14 13:05:34;;;;;;;4.67;1.90;;;26.60;99.90;;;;;;5075177;28;20282;-82
2022/09/14 13:08:09;;;;;;;8.07;2.07;;;26.50;99.90;;;;;;5073398;28;20219;-81
2022/09/14 13:10:44;;;;;;;6.83;2.27;;;26.50;99.90;;;;;;5084996;28;20201;-78
2022/09/14 13:13:16;;;;;;;9.93;2.33;;;26.60;99.90;;;;;;5073398;28;20183;-79
2022/09/14 13:15:52;;;;;;;9.37;2.27;;;26.40;99.90;;;;;;5093403;28;20236;-80
2022/09/14 13:18:34;;;;;;;7.63;2.00;;;26.60;99.90;;;;;;5077668;28;20211;-81
2022/09/14 13:21:14;;;;;;;6.37;1.97;;;26.60;99.90;;;;;;5073897;28;20195;-78
2022/09/14 13:23:42;;;;;;;5.40;2.00;;;26.50;99.90;;;;;;5087363;28;20218;-78
2022/09/14 13:26:13;;;;;;;8.30;2.17;;;26.20;99.90;;;;;;5093244;28;20229;-77
2022/09/14 13:28:44;;;;;;;5.87;2.20;;;26.10;99.90;;;;;;5111635;28;20211;-78
2022/09/14 13:31:16;;;;;;;5.93;2.20;;;25.90;99.90;;;;;;5115308;28;20603;-79
2022/09/14 13:33:51;;;;;;;5.63;2.00;;;25.90;99.90;;;;;;5111174;28;20220;-79
2022/09/14 13:36:23;;;;;;;9.10;2.37;;;25.90;99.90;;;;;;5093359;28;20210;-79
2022/09/14 13:38:52;;;;;;;7.33;2.07;;;25.80;99.90;;;;;;5091366;28;20219;-80
2022/09/14 13:41:22;;;;;;;7.27;2.10;;;25.90;99.90;;;;;;5091907;28;20211;-77
2022/09/14 13:43:53;;;;;;;7.37;1.83;;;25.80;99.90;;;;;;5073512;28;20207;-77
2022/09/14 13:46:22;;;;;;;4.63;2.00;;;25.70;99.90;;;;;;5071553;28;20215;-78
2022/09/14 13:48:53;;;;;;;5.03;1.90;;;25.60;99.90;;;;;;5072639;28;20677;-80
2022/09/14 13:51:25;;;;;;;7.03;2.20;;;25.60;99.90;;;;;;5073016;28;20196;-76
2022/09/14 13:53:55;;;;;;;7.37;1.93;;;25.70;99.90;;;;;;5076437;28;20282;-79
2022/09/14 13:56:29;;;;;;;7.17;1.83;;;25.70;99.90;;;;;;5074096;28;20665;-77
2022/09/14 13:59:19;;;;;;;8.10;2.20;;;25.70;99.90;;;;;;5083686;28;20210;-78
2022/09/14 14:01:59;;;;;;;6.53;2.03;;;25.60;99.90;;;;;;5098469;28;20214;-77
2022/09/14 14:04:36;;;;;;;4.90;1.90;;;25.40;99.90;;;;;;5096942;28;20208;-77
2022/09/14 14:07:15;;;;;;;8.60;2.10;;;25.40;99.90;;;;;;5107799;28;20234;-79
2022/09/14 14:09:46;;;;;;;6.87;1.83;;;25.30;99.90;;;;;;5104447;28;20225;-78
2022/09/14 14:12:23;;;;;;;7.67;2.13;;;25.20;99.90;;;;;;5089796;28;20226;-79
2022/09/14 14:14:56;;;;;;;5.53;2.00;;;25.20;99.90;;;;;;5080642;28;20187;-79
2022/09/14 14:17:35;;;;;;;6.07;2.10;;;25.00;99.90;;;;;;5093879;28;20267;-78
2022/09/14 14:20:32;;;;;;;10.47;2.40;;;24.90;99.90;;;;;;5095943;28;20223;-79
2022/09/14 14:23:14;;;;;;;9.37;2.07;;;24.80;99.90;;;;;;5078401;28;20203;-77
2022/09/14 14:25:46;;;;;;;4.77;2.10;;;24.70;99.90;;;;;;5074068;28;20199;-77
2022/09/14 14:28:22;;;;;;;6.10;2.27;;;24.60;99.90;;;;;;5074380;28;20210;-77
2022/09/14 14:30:50;;;;;;;5.63;1.90;;;24.40;99.90;;;;;;5072226;28;20191;-78
2022/09/14 14:33:19;;;;;;;3.77;1.87;;;24.30;99.90;;;;;;5082801;28;20223;-79
2022/09/14 14:35:52;;;;;;;6.70;1.90;;;24.20;99.90;;;;;;5099730;28;20232;-79
2022/09/14 14:38:22;;;;;;;6.63;2.10;;;24.10;99.90;;;;;;5092250;28;20684;-80
2022/09/14 14:40:52;;;;;;;6.43;2.10;;;23.90;99.90;;;;;;5092948;28;20306;-78
2022/09/14 14:43:24;;;;;;;4.20;1.80;;;23.80;99.90;;;;;;5091757;28;20203;-79
2022/09/14 14:45:54;;;;;;;5.63;2.10;;;23.70;99.90;;;;;;5091928;28;20219;-83
2022/09/14 14:48:23;;;;;;;5.50;1.93;;;23.70;99.90;;;;;;5092003;28;20634;-81
2022/09/14 14:50:55;;;;;;;5.33;2.13;;;23.60;99.90;;;;;;5097664;28;20244;-78
2022/09/14 14:53:23;;;;;;;4.70;1.80;;;23.60;99.90;;;;;;5095221;28;20206;-79
2022/09/14 14:55:52;;;;;;;5.70;2.00;;;23.60;99.90;;;;;;5095424;28;20672;-79
2022/09/14 14:58:21;;;;;;;6.47;2.20;;;23.60;99.90;;;;;;5093636;28;20203;-80
2022/09/14 15:00:51;;;;;;;6.40;2.20;;;23.70;99.90;;;;;;5091858;28;20254;-77
2022/09/14 15:03:20;;;;;;;7.10;2.27;;;23.70;99.90;;;;;;5090848;28;20203;-78
2022/09/14 15:05:49;;;;;;;4.77;1.93;;;23.70;99.90;;;;;;5091119;28;20218;-78
2022/09/14 15:08:19;;;;;;;6.73;2.30;;;23.70;99.90;;;;;;5075973;28;20207;-80
2022/09/14 15:10:48;;;;;;;6.83;1.93;;;23.60;99.90;;;;;;5075709;28;20190;-79
2022/09/14 15:13:16;;;;;;;5.97;2.20;;;23.50;99.90;;;;;;5075626;28;20696;-77
2022/09/14 15:15:45;;;;;;;6.57;2.10;;;23.50;99.90;;;;;;5088445;28;20256;-79
2022/09/14 15:18:16;;;;;;;7.63;2.13;;;23.50;99.90;;;;;;5096357;28;20198;-78
2022/09/14 15:20:43;;;;;;;5.37;2.20;;;23.40;99.90;;;;;;5095319;28;20221;-79
2022/09/14 15:23:13;;;;;;;4.60;1.90;;;23.30;99.90;;;;;;5077491;28;20215;-83
2022/09/14 15:25:42;;;;;;;9.23;1.67;;;23.10;99.90;;;;;;5076451;28;20211;-82
2022/09/14 15:28:11;;;;;;;7.40;1.60;;;22.90;99.90;;;;;;5076122;28;20222;-80
2022/09/14 15:30:42;;;;;;;11.70;1.77;;;22.60;99.90;;;;;;5077787;28;20202;-79
2022/09/14 15:33:10;;;;;;;5.67;1.60;;;22.30;99.90;;;;;;5078530;28;20227;-81
2022/09/14 15:35:39;;;;;;;5.37;1.30;;;22.20;99.90;;;;;;5089763;28;20208;-81
2022/09/14 15:38:07;;;;;;;3.43;1.40;;;22.00;99.90;;;;;;5078003;28;20214;-83
2022/09/14 15:40:35;;;;;;;4.07;1.43;;;21.80;99.90;;;;;;5095280;28;20245;-83
2022/09/14 15:43:05;;;;;;;4.13;1.33;;;21.70;99.90;;;;;;5096665;28;20240;-82
2022/09/14 15:45:33;;;;;;;5.27;1.57;;;21.50;99.90;;;;;;5096969;28;20211;-82
2022/09/14 15:48:03;;;;;;;2.77;1.10;;;21.40;99.90;;;;;;5077332;28;20665;-81
2022/09/14 15:50:32;;;;;;;6.03;1.50;;;21.40;99.90;;;;;;5075320;28;20218;-82
2022/09/14 15:53:00;;;;;;;6.10;1.37;;;21.20;99.90;;;;;;5095724;28;20285;-83
2022/09/14 15:55:29;;;;;;;4.60;1.30;;;21.10;99.90;;;;;;5084064;28;20650;-83
2022/09/14 15:57:57;;;;;;;5.13;1.47;;;20.90;99.90;;;;;;5077163;28;20295;-83
2022/09/14 16:00:27;;;;;;;3.20;1.37;;;20.70;99.90;;;;;;5077027;28;20644;-83
2022/09/14 16:02:55;;;;;;;4.07;1.40;;;20.50;99.90;;;;;;5077631;28;20222;-83
2022/09/14 16:05:24;;;;;;;2.33;1.20;;;20.50;99.90;;;;;;5078682;28;20215;-85
2022/09/14 16:07:53;;;;;;;2.07;1.33;;;20.50;99.90;;;;;;5078714;28;20207;-82
2022/09/14 16:10:23;;;;;;;5.60;2.10;;;20.50;99.90;;;;;;5078605;28;20294;-81
2022/09/14 16:12:52;;;;;;;9.20;1.60;;;20.40;99.90;;;;;;5087865;28;20218;-84
2022/09/14 16:15:22;;;;;;;5.00;1.27;;;20.40;99.90;;;;;;5078531;28;20208;-81
2022/09/14 16:17:52;;;;;;;7.20;2.27;;;20.40;99.90;;;;;;5092131;28;20668;-77
2022/09/14 16:20:21;;;;;;;5.23;2.03;;;20.10;99.90;;;;;;5096345;28;20215;-77
2022/09/14 16:22:49;;;;;;;10.47;2.80;;;19.50;99.90;;;;;;5097870;28;20573;-78
2022/09/14 16:25:18;;;;;;;5.40;1.73;;;19.10;99.90;;;;;;5093869;28;20218;-76
2022/09/14 16:27:47;;;;;;;5.13;2.03;;;18.80;99.90;;;;;;5090069;28;20207;-79
2022/09/14 16:30:16;;;;;;;4.67;1.90;;;18.60;99.90;;;;;;5097911;28;20203;-81
2022/09/14 16:32:44;;;;;;;5.80;2.10;;;18.40;99.90;;;;;;5099619;28;20202;-77
2022/09/14 16:35:16;;;;;;;5.63;2.20;;;18.40;99.90;;;;;;5078348;28;20215;-78
2022/09/14 16:37:44;;;;;;;7.63;2.17;;;18.30;99.90;;;;;;5075201;28;20196;-78
2022/09/14 16:40:12;;;;;;;5.20;1.90;;;18.20;99.90;;;;;;5074795;28;20224;-81
2022/09/14 16:42:41;;;;;;;5.80;2.00;;;18.20;99.90;;;;;;5077168;28;20212;-81
2022/09/14 16:45:09;;;;;;;5.07;2.00;;;18.20;99.90;;;;;;5074497;28;20215;-81
2022/09/14 16:47:37;;;;;;;5.00;1.87;;;18.20;99.90;;;;;;5075628;28;20214;-82
2022/09/14 16:50:06;;;;;;;4.83;2.10;;;18.20;99.90;;;;;;5092478;28;20207;-83
2022/09/14 16:52:36;;;;;;;6.53;2.30;;;18.20;99.90;;;;;;5078857;28;20218;-81
2022/09/14 16:55:05;;;;;;;4.03;2.10;;;18.10;99.90;;;;;;5077691;28;20307;-82
2022/09/14 16:57:33;;;;;;;5.63;2.27;;;18.10;99.90;;;;;;5073580;28;20265;-80
2022/09/14 17:00:01;;;;;;;4.33;2.10;;;18.10;99.90;;;;;;5073506;28;20213;-81
2022/09/14 17:02:29;;;;;;;7.23;2.60;;;18.10;99.90;;;;;;5074645;28;20216;-83
2022/09/14 17:04:59;;;;;;;4.63;2.27;;;18.20;99.90;;;;;;5090728;28;20225;-81
2022/09/14 17:07:27;;;;;;;4.27;2.20;;;18.10;99.90;;;;;;5093695;28;20686;-81
2022/09/14 17:09:57;;;;;;;5.03;2.00;;;18.10;99.90;;;;;;5093649;28;20203;-81
2022/09/14 17:12:25;;;;;;;4.23;2.30;;;18.10;99.90;;;;;;5094154;28;20215;-82
2022/09/14 17:14:53;;;;;;;4.33;2.10;;;18.00;99.90;;;;;;5093736;28;20214;-82
2022/09/14 17:17:21;;;;;;;5.93;2.10;;;18.00;99.90;;;;;;5074551;28;20211;-82
2022/09/14 17:19:49;;;;;;;6.47;2.30;;;18.00;99.90;;;;;;5091780;28;20568;-82
2022/09/14 17:22:18;;;;;;;5.13;2.27;;;18.00;99.90;;;;;;5091724;28;20297;-83
2022/09/14 17:24:46;;;;;;;4.77;2.47;;;18.00;99.90;;;;;;5080002;28;20218;-83
2022/09/14 17:27:17;;;;;;;4.90;2.30;;;17.90;99.90;;;;;;5092165;28;20575;-84
2022/09/14 17:29:49;;;;;;;5.83;2.50;;;17.90;99.90;;;;;;5092731;28;20214;-81
2022/09/14 17:32:17;;;;;;;6.40;2.60;;;17.90;99.90;;;;;;5093910;28;20218;-83
2022/09/14 17:34:46;;;;;;;4.83;2.80;;;17.80;99.90;;;;;;5093765;28;20226;-82
2022/09/14 17:37:14;;;;;;;7.40;2.73;;;17.80;99.90;;;;;;5092651;28;20211;-82
2022/09/14 17:39:42;;;;;;;6.87;2.60;;;17.80;99.90;;;;;;5089944;28;20218;-82
2022/09/14 17:42:11;;;;;;;3.80;2.30;;;17.80;99.90;;;;;;5072633;28;20707;-82
2022/09/14 17:44:41;;;;;;;6.13;3.03;;;17.70;99.90;;;;;;5080783;28;20214;-82
2022/09/14 17:47:09;;;;;;;7.17;3.10;;;17.70;99.90;;;;;;5092997;28;20187;-82
2022/09/14 17:49:38;;;;;;;5.30;2.67;;;17.70;99.90;;;;;;5092038;28;20211;-83
2022/09/14 17:52:06;;;;;;;8.80;2.90;;;17.70;99.90;;;;;;5080760;28;20257;-83
2022/09/14 17:54:34;;;;;;;6.90;2.90;;;17.70;99.90;;;;;;5075670;28;20203;-80
2022/09/14 17:57:03;;;;;;;6.00;3.00;;;17.70;99.90;;;;;;5072688;28;20474;-82
2022/09/14 17:59:31;;;;;;;4.13;2.90;;;17.70;99.90;;;;;;5072682;28;20211;-80
2022/09/14 18:02:00;;;;;;;5.07;2.90;;;17.70;99.90;;;;;;5072161;28;20243;-81
2022/09/14 18:04:28;;;;;;;5.77;3.20;;;17.70;99.90;;;;;;5073221;28;20199;-81
2022/09/14 18:06:57;;;;;;;6.70;2.80;;;17.80;99.90;;;;;;5073250;28;20301;-83
2022/09/14 18:09:25;;;;;;;6.43;3.10;;;17.80;99.90;;;;;;5072522;28;20573;-82
2022/09/14 18:11:56;;;;;;;5.00;3.00;;;17.80;99.90;;;;;;5080746;28;20606;-81
2022/09/14 18:14:24;;;;;;;5.77;3.30;;;17.80;99.90;;;;;;5092770;28;20591;-80
2022/09/14 18:16:52;;;;;;;5.57;3.40;;;17.80;99.90;;;;;;5092568;28;20767;-82
2022/09/14 18:19:22;;;;;;;7.03;3.37;;;17.90;99.90;;;;;;5088576;28;20219;-82
2022/09/14 18:21:50;;;;;;;6.97;3.10;;;17.90;99.90;;;;;;5092268;28;20218;-80
2022/09/14 18:24:20;;;;;;;6.20;3.10;;;17.90;99.90;;;;;;5092329;28;20207;-80
2022/09/14 18:26:48;;;;;;;7.10;3.07;;;17.90;99.90;;;;;;5092111;28;20210;-81
2022/09/14 18:29:22;;;;;;;5.43;3.10;;;17.90;99.90;;;;;;5091725;28;20260;-81
2022/09/14 18:31:51;;;;;;;6.13;3.00;;;18.00;99.90;;;;;;5092777;28;20598;-83
2022/09/14 18:34:20;;;;;;;5.60;3.60;;;18.00;99.90;;;;;;5092313;28;20231;-82
2022/09/14 18:36:51;;;;;;;7.50;3.10;;;18.00;99.90;;;;;;5092471;28;20210;-83
2022/09/14 18:39:19;;;;;;;5.07;2.70;;;17.90;99.90;;;;;;5082192;28;20290;-81
2022/09/14 18:41:50;;;;;;;7.87;3.00;;;17.90;99.90;;;;;;5072875;28;20227;-81
2022/09/14 18:44:20;;;;;;;7.83;2.80;;;17.80;99.90;;;;;;5072242;28;20269;-84
2022/09/14 18:46:49;;;;;;;6.53;2.60;;;17.90;99.90;;;;;;5071874;28;20772;-82
2022/09/14 18:49:19;;;;;;;5.43;2.50;;;17.80;99.90;;;;;;5090885;28;20209;-84
2022/09/14 18:51:51;;;;;;;4.70;2.40;;;17.80;99.90;;;;;;5093408;28;20289;-80
2022/09/14 18:54:23;;;;;;;7.33;2.43;;;17.80;99.90;;;;;;5093687;28;20723;-81
2022/09/14 18:56:57;;;;;;;6.03;2.70;;;17.80;99.90;;;;;;5093323;28;20209;-81
2022/09/14 18:59:25;;;;;;;5.90;2.47;;;17.80;99.90;;;;;;5092246;28;20198;-82
2022/09/14 19:01:53;;;;;;;4.73;2.40;;;17.80;99.90;;;;;;5092132;28;20227;-79
2022/09/14 19:04:22;;;;;;;8.00;2.50;;;17.70;99.90;;;;;;5090175;28;20217;-80
2022/09/14 19:06:51;;;;;;;8.50;2.47;;;17.70;99.90;;;;;;5089219;28;20199;-80
2022/09/14 19:09:22;;;;;;;4.63;2.60;;;17.70;99.90;;;;;;5095805;28;20217;-80
2022/09/14 19:11:50;;;;;;;7.00;2.90;;;17.70;99.90;;;;;;5092357;28;20194;-80
2022/09/14 19:14:19;;;;;;;7.40;3.07;;;17.60;99.90;;;;;;5088713;28;20262;-81
2022/09/14 19:16:49;;;;;;;5.83;2.87;;;17.60;99.90;;;;;;5071631;28;20672;-80
2022/09/14 19:19:17;;;;;;;6.10;2.53;;;17.50;99.90;;;;;;5071595;28;20211;-83
2022/09/14 19:21:45;;;;;;;5.00;2.80;;;17.40;99.90;;;;;;5071698;28;20220;-81
2022/09/14 19:24:16;;;;;;;8.87;3.20;;;17.40;99.90;;;;;;5086939;28;20211;-82
2022/09/14 19:26:46;;;;;;;6.10;3.10;;;17.30;99.90;;;;;;5093411;28;20191;-83
2022/09/14 19:29:22;;;;;;;8.50;3.10;;;17.30;99.90;;;;;;5092220;28;20544;-82
2022/09/14 19:31:51;;;;;;;5.17;2.80;;;17.30;99.90;;;;;;5091323;28;20226;-81
2022/09/14 19:34:19;;;;;;;7.37;3.10;;;17.20;99.90;;;;;;5091921;28;20227;-82
2022/09/14 19:36:48;;;;;;;9.03;3.27;;;17.20;99.90;;;;;;5091909;28;20203;-80
2022/09/14 19:39:17;;;;;;;6.40;3.33;;;17.20;99.90;;;;;;5091713;28;20207;-82
2022/09/14 19:41:48;;;;;;;5.53;3.23;;;17.20;99.90;;;;;;5078548;28;20673;-83
2022/09/14 19:44:21;;;;;;;7.50;3.43;;;17.20;99.90;;;;;;5071806;28;20207;-82
2022/09/14 19:46:49;;;;;;;6.03;3.33;;;17.20;99.90;;;;;;5071429;28;20215;-82
2022/09/14 19:49:18;;;;;;;5.87;3.60;;;17.20;99.90;;;;;;5071398;28;20204;-83
2022/09/14 19:51:47;;;;;;;7.33;3.97;;;17.20;99.90;;;;;;5072061;28;20238;-81
2022/09/14 19:54:17;;;;;;;10.03;4.03;;;17.10;99.90;;;;;;5074229;28;20661;-81
2022/09/14 19:56:46;;;;;;;7.83;3.63;;;17.10;99.90;;;;;;5077866;28;20214;-82
2022/09/14 19:59:15;;;;;;;5.23;3.27;;;17.10;99.90;;;;;;5083009;28;20213;-84